Portada
METAR-TAF:

METAR-TAF

Aeroports :

Plataforma petroliera

Ula, Noruega

latitud: 59-06-39N, longitud: 2-50-45E, altitud: 0 m

Observació

L'informe es va fer fa 16 minuts, a les 20:20 UTC
Vent 9 kt del Sud/Sud-Est
Temperatura 17°C
Humitat 94%
Pressió 1020 hPa
Visibilitat 10 km o més

METAR: ENLA 242020Z AUTO 15009KT 9999NDV NCD 17/16 Q1020 W///S3

Hora: 22:36 (20:36 UTC)


TAF: manca

Observacions i pronòstics meteorològics de més de 4000 aeroports (METAR i TAF).

Les estacions disponibles són els punts grocs i vermells al mapa.

Posi el ratolí al punt desitjat per veure el nom de l'estació.

Feu clic per veure les observacions i els pronòstics meteorològics.

Per canviar el mapa: feu clic els botons verds amb una creu de color negre per apropar; al botó verd amb un guió per allunyar la imatge; o en les fletxes verdes per a mapes adjacents.


METAR-TAF: